This is the latest recevied weather packets stored in our database for station/object WD4IXD-WX. If no packets are shown the sender has not sent any weather packets the latest 10 day(s).
| Time | Temp. | Humidity | Pressure | Rain* | Wind** | Luminosity | Snow |
|---|---|---|---|---|---|---|---|
| 1778194504 | 8.89° C | 37% | 1019.4 hPa | 0 mm | - | 246 W/m² | - |
| 1778194204 | 8.89° C | 38% | 1019.4 hPa | 0 mm | - | 237 W/m² | - |
| 1778193904 | 8.89° C | 38% | 1019.4 hPa | 0 mm | - | 202 W/m² | - |
| 1778193604 | 8.89° C | 39% | 1019.5 hPa | 0 mm | - | 165 W/m² | - |
| 1778193304 | 8.89° C | 39% | 1019.5 hPa | 0 mm | - | 171 W/m² | - |
| 1778193004 | 8.89° C | 39% | 1019.5 hPa | 0 mm | - | 156 W/m² | - |
| 1778192704 | 8.89° C | 38% | 1019.5 hPa | 0 mm | - | 167 W/m² | - |
| 1778192404 | 8.89° C | 37% | 1019.6 hPa | 0 mm | - | 162 W/m² | - |
| 1778192105 | 8.89° C | 40% | 1019.6 hPa | 0 mm | - | 146 W/m² | - |
| 1778191804 | 8.89° C | 40% | 1019.7 hPa | 0 mm | - | 160 W/m² | - |
| 1778191504 | 8.89° C | 39% | 1019.7 hPa | 0 mm | - | 183 W/m² | - |
| 1778191204 | 8.89° C | 40% | 1019.7 hPa | 0 mm | - | 199 W/m² | - |
| 1778190904 | 8.89° C | 38% | 1019.8 hPa | 0 mm | - | 206 W/m² | - |
| 1778190604 | 8.89° C | 38% | 1019.9 hPa | 0 mm | - | 178 W/m² | - |
| 1778190304 | 8.89° C | 40% | 1019.9 hPa | 0 mm | - | 262 W/m² | - |
| 1778190003 | 8.89° C | 39% | 1019.9 hPa | 0 mm | - | 176 W/m² | - |
| 1778189704 | 8.89° C | 39% | 1019.9 hPa | 0 mm | - | 218 W/m² | - |
| 1778189404 | 9.44° C | 39% | 1020 hPa | 0 mm | - | 221 W/m² | - |
| 1778189104 | 9.44° C | 37% | 1020 hPa | 0 mm | - | 236 W/m² | - |
| 1778188804 | 10° C | 38% | 1020 hPa | 0 mm | - | 371 W/m² | - |
| 1778188504 | 10° C | 39% | 1020 hPa | 0 mm | - | 1072 W/m² | - |
| 1778188204 | 9.44° C | 38% | 1020.1 hPa | 0 mm | - | 457 W/m² | - |
| 1778187904 | 8.89° C | 42% | 1020.2 hPa | 0 mm | - | 1037 W/m² | - |
| 1778187604 | 9.44° C | 38% | 1020.2 hPa | 0 mm | - | 229 W/m² | - |
| 1778187304 | 9.44° C | 40% | 1020.2 hPa | 0 mm | - | 288 W/m² | - |
* Rain latest hour (hover to see other rain measurements)
** Current wind speed in m/s (hover to see current wind gust speed)